createdAt,value
2022-08-24T00:00:07.341Z,24.90
2022-08-24T00:02:34.271Z,24.80
2022-08-24T00:05:01.209Z,24.80
2022-08-24T00:07:28.235Z,24.80
2022-08-24T00:09:55.862Z,24.80
2022-08-24T00:12:22.520Z,24.80
2022-08-24T00:14:49.607Z,24.80
2022-08-24T00:17:17.296Z,24.70
2022-08-24T00:19:44.346Z,24.60
2022-08-24T00:22:11.009Z,24.50
2022-08-24T00:24:37.918Z,24.40
2022-08-24T00:27:06.520Z,24.40
2022-08-24T00:29:33.927Z,24.20
2022-08-24T00:32:00.910Z,24.20
2022-08-24T00:34:27.787Z,24.10
2022-08-24T00:36:54.539Z,24.10
2022-08-24T00:39:23.095Z,24.10
2022-08-24T00:41:51.225Z,24.00
2022-08-24T00:44:19.835Z,24.00
2022-08-24T00:46:58.097Z,23.90
2022-08-24T00:49:44.197Z,23.80
2022-08-24T00:52:19.439Z,23.80
2022-08-24T00:54:51.195Z,23.80
2022-08-24T00:57:22.659Z,23.80
2022-08-24T00:59:54.946Z,23.80
2022-08-24T01:02:26.076Z,23.80
2022-08-24T01:04:57.448Z,23.80
2022-08-24T01:07:29.379Z,23.80
2022-08-24T01:10:00.304Z,23.60
2022-08-24T01:12:29.996Z,23.60
2022-08-24T01:14:58.786Z,23.40
2022-08-24T01:17:44.483Z,23.40
2022-08-24T01:20:12.402Z,23.30
2022-08-24T01:23:25.041Z,23.30
2022-08-24T01:26:02.875Z,23.30
2022-08-24T01:28:30.318Z,23.20
2022-08-24T01:30:59.022Z,23.10
2022-08-24T01:33:30.022Z,23.10
2022-08-24T01:36:34.857Z,23.20
2022-08-24T01:39:10.528Z,23.10
2022-08-24T01:41:38.158Z,23.10
2022-08-24T01:44:05.808Z,23.00
2022-08-24T01:46:32.421Z,23.00
2022-08-24T01:48:59.290Z,23.00
2022-08-24T01:51:30.559Z,22.90
2022-08-24T01:53:59.024Z,22.80
2022-08-24T01:56:25.609Z,22.70
2022-08-24T01:58:52.320Z,22.80
2022-08-24T02:01:19.269Z,22.70
2022-08-24T02:03:46.407Z,22.70
2022-08-24T02:06:19.615Z,22.60
2022-08-24T02:08:46.921Z,22.50
2022-08-24T02:11:13.674Z,22.50
2022-08-24T02:13:42.476Z,22.50
2022-08-24T02:16:09.470Z,22.40
2022-08-24T02:18:40.509Z,22.40
2022-08-24T02:21:12.384Z,22.30
2022-08-24T02:23:40.637Z,22.30
2022-08-24T02:26:09.107Z,22.20
2022-08-24T02:28:35.913Z,22.10
2022-08-24T02:31:05.682Z,22.10
2022-08-24T02:33:34.834Z,22.20
2022-08-24T02:36:02.091Z,22.20
2022-08-24T02:38:29.507Z,22.10
2022-08-24T02:40:57.815Z,22.10
2022-08-24T02:43:24.943Z,22.10
2022-08-24T02:45:52.396Z,22.10
2022-08-24T02:48:19.467Z,22.00
2022-08-24T02:50:49.198Z,22.10
2022-08-24T02:53:18.313Z,22.00
2022-08-24T02:55:45.059Z,22.00
2022-08-24T02:58:13.458Z,22.00
2022-08-24T03:00:41.842Z,21.90
2022-08-24T03:03:09.286Z,21.90
2022-08-24T03:05:36.227Z,21.90
2022-08-24T03:08:03.851Z,21.80
2022-08-24T03:10:30.855Z,21.80
2022-08-24T03:12:58.841Z,21.70
2022-08-24T03:15:25.967Z,21.70
2022-08-24T03:17:52.583Z,21.60
2022-08-24T03:20:21.683Z,21.60
2022-08-24T03:22:48.325Z,21.50
2022-08-24T03:25:17.109Z,21.50
2022-08-24T03:27:44.026Z,21.50
2022-08-24T03:30:13.025Z,21.50
2022-08-24T03:32:41.165Z,21.50
2022-08-24T03:35:09.341Z,21.50
2022-08-24T03:37:35.953Z,21.40
2022-08-24T03:40:02.925Z,21.40
2022-08-24T03:42:29.705Z,21.30
2022-08-24T03:44:56.316Z,21.20
2022-08-24T03:47:22.939Z,21.10
2022-08-24T03:49:49.775Z,21.00
2022-08-24T03:52:17.186Z,21.00
2022-08-24T03:54:43.811Z,21.00
2022-08-24T03:57:10.457Z,20.90
2022-08-24T03:59:46.429Z,20.80
2022-08-24T04:02:13.335Z,20.80
2022-08-24T04:04:41.409Z,20.80
2022-08-24T04:07:09.913Z,20.80
2022-08-24T04:09:36.511Z,20.60
2022-08-24T04:12:03.500Z,20.60
2022-08-24T04:14:30.947Z,20.60
2022-08-24T04:16:58.143Z,20.60
2022-08-24T04:19:25.445Z,20.50
2022-08-24T04:21:52.101Z,20.50
2022-08-24T04:24:19.691Z,20.40
2022-08-24T04:26:46.633Z,20.30
2022-08-24T04:29:15.004Z,20.40
2022-08-24T04:31:43.474Z,20.30
2022-08-24T04:34:11.296Z,20.30
2022-08-24T04:36:40.740Z,20.30
2022-08-24T04:39:07.380Z,20.30
2022-08-24T04:41:34.342Z,20.20
2022-08-24T04:44:02.745Z,20.20
2022-08-24T04:46:30.049Z,20.10
2022-08-24T04:48:57.468Z,20.10
2022-08-24T04:51:24.200Z,20.10
2022-08-24T04:53:51.150Z,20.10
2022-08-24T04:56:25.577Z,20.00
2022-08-24T04:58:53.889Z,20.00
2022-08-24T05:01:24.780Z,20.10
2022-08-24T05:03:54.025Z,20.30
2022-08-24T05:06:24.094Z,20.60
2022-08-24T05:08:51.519Z,20.70
2022-08-24T05:11:20.009Z,20.90
2022-08-24T05:13:47.307Z,21.00
2022-08-24T05:16:17.882Z,21.00
2022-08-24T05:18:45.857Z,21.10
2022-08-24T05:21:16.043Z,21.10
2022-08-24T05:23:43.935Z,21.10
2022-08-24T05:26:15.716Z,21.20
2022-08-24T05:28:43.795Z,21.20
2022-08-24T05:31:16.577Z,21.30
2022-08-24T05:33:43.443Z,21.20
2022-08-24T05:36:22.373Z,21.20
2022-08-24T05:38:50.754Z,21.10
2022-08-24T05:41:18.082Z,21.10
2022-08-24T05:43:45.288Z,21.00
2022-08-24T05:46:12.979Z,21.00
2022-08-24T05:48:39.834Z,21.00
2022-08-24T05:51:08.585Z,20.90
2022-08-24T05:53:36.144Z,21.00
2022-08-24T05:56:05.291Z,21.00
2022-08-24T05:58:33.721Z,20.90
2022-08-24T06:01:06.260Z,21.00
2022-08-24T06:03:32.920Z,21.10
2022-08-24T06:06:01.844Z,21.10
2022-08-24T06:08:28.431Z,21.20
2022-08-24T06:10:55.595Z,21.20
2022-08-24T06:13:22.213Z,21.30
2022-08-24T06:16:05.023Z,21.40
2022-08-24T06:18:36.236Z,21.30
2022-08-24T06:21:07.949Z,21.40
2022-08-24T06:23:35.613Z,21.40
2022-08-24T06:26:23.337Z,21.40
2022-08-24T06:28:50.785Z,21.40
2022-08-24T06:31:17.854Z,21.40
2022-08-24T06:33:44.646Z,21.40
2022-08-24T06:36:11.318Z,21.50
2022-08-24T06:38:38.036Z,21.60
2022-08-24T06:41:05.254Z,21.60
2022-08-24T06:43:34.456Z,21.60
2022-08-24T06:46:01.604Z,21.70
2022-08-24T06:48:28.460Z,21.80
2022-08-24T06:50:55.108Z,21.90
2022-08-24T06:53:21.739Z,21.90
2022-08-24T06:55:58.845Z,21.80
2022-08-24T06:58:28.279Z,21.90
2022-08-24T07:00:57.026Z,21.90
2022-08-24T07:03:25.241Z,22.00
2022-08-24T07:05:57.699Z,22.10
2022-08-24T07:08:24.752Z,22.20
2022-08-24T07:10:51.512Z,22.20
2022-08-24T07:13:18.196Z,22.20
2022-08-24T07:15:45.294Z,22.30
2022-08-24T07:18:16.048Z,22.50
2022-08-24T07:20:43.618Z,22.50
2022-08-24T07:23:12.944Z,22.50
2022-08-24T07:25:39.928Z,22.60
2022-08-24T07:28:10.980Z,22.60
2022-08-24T07:30:39.481Z,22.80
2022-08-24T07:33:06.320Z,22.90
2022-08-24T07:35:34.054Z,23.00
2022-08-24T07:38:01.641Z,23.00
2022-08-24T07:40:29.971Z,23.00
2022-08-24T07:42:58.151Z,23.00
2022-08-24T07:45:26.400Z,23.00
2022-08-24T07:47:55.880Z,23.20
2022-08-24T07:50:23.033Z,23.30
2022-08-24T07:52:49.657Z,23.30
2022-08-24T07:55:16.381Z,23.40
2022-08-24T07:57:45.082Z,23.50
2022-08-24T08:00:14.547Z,23.60
2022-08-24T08:02:45.223Z,23.60
2022-08-24T08:05:17.197Z,23.80
2022-08-24T08:07:44.980Z,23.90
2022-08-24T08:10:12.692Z,24.00
2022-08-24T08:12:39.459Z,24.10
2022-08-24T08:15:08.808Z,24.10
2022-08-24T08:17:37.308Z,24.10
2022-08-24T08:20:08.937Z,24.20
2022-08-24T08:22:56.623Z,24.30
2022-08-24T08:25:23.252Z,24.40
2022-08-24T08:27:49.977Z,24.60
2022-08-24T08:30:16.900Z,24.60
2022-08-24T08:32:43.532Z,24.80
2022-08-24T08:35:10.750Z,24.80
2022-08-24T08:37:37.820Z,24.70
2022-08-24T08:40:07.376Z,24.90
2022-08-24T08:43:01.267Z,25.00
2022-08-24T08:45:41.478Z,25.10
2022-08-24T08:48:53.535Z,25.20
2022-08-24T08:51:46.813Z,25.30
2022-08-24T08:54:26.692Z,25.50
2022-08-24T08:57:00.280Z,25.50
2022-08-24T08:59:35.850Z,25.50
2022-08-24T09:02:28.956Z,25.70
2022-08-24T09:05:34.683Z,25.80
2022-08-24T09:08:08.936Z,25.90
2022-08-24T09:11:01.888Z,25.90
2022-08-24T09:13:47.304Z,26.00
2022-08-24T09:16:31.537Z,26.10
2022-08-24T09:19:19.620Z,26.30
2022-08-24T09:22:12.786Z,26.40
2022-08-24T09:24:39.304Z,26.50
2022-08-24T09:27:17.954Z,26.60
2022-08-24T09:30:18.460Z,26.60
2022-08-24T09:32:57.472Z,26.70
2022-08-24T09:35:48.937Z,26.70
2022-08-24T09:38:23.841Z,26.80
2022-08-24T09:41:18.317Z,26.80
2022-08-24T09:44:21.340Z,26.60
2022-08-24T09:47:26.105Z,26.80
2022-08-24T09:50:38.125Z,26.90
2022-08-24T09:53:32.065Z,26.90
2022-08-24T09:56:11.717Z,27.10
2022-08-24T09:59:06.692Z,27.30
2022-08-24T10:01:49.309Z,27.40
2022-08-24T10:04:32.095Z,27.40
2022-08-24T10:07:27.297Z,27.50
2022-08-24T10:10:20.444Z,27.70
2022-08-24T10:13:11.625Z,27.80
2022-08-24T10:16:04.187Z,27.90
2022-08-24T10:19:06.744Z,28.00
2022-08-24T10:21:45.278Z,28.00
2022-08-24T10:24:32.049Z,28.20
2022-08-24T10:27:13.552Z,28.10
2022-08-24T10:30:01.275Z,28.20
2022-08-24T10:32:49.836Z,28.30
2022-08-24T10:35:25.886Z,28.40
2022-08-24T10:38:42.882Z,28.50
2022-08-24T10:41:25.163Z,28.50
2022-08-24T10:44:16.336Z,28.50
2022-08-24T10:46:59.532Z,28.60
2022-08-24T10:49:34.936Z,28.70
2022-08-24T10:52:07.600Z,28.80
2022-08-24T10:54:35.960Z,29.00
2022-08-24T10:57:23.199Z,29.00
2022-08-24T10:59:49.754Z,28.80
2022-08-24T11:02:37.779Z,28.80
2022-08-24T11:05:08.423Z,28.90
2022-08-24T11:07:36.303Z,28.90
2022-08-24T11:10:06.753Z,29.00
2022-08-24T11:12:38.040Z,29.00
2022-08-24T11:15:19.578Z,29.20
2022-08-24T11:17:56.499Z,29.40
2022-08-24T11:20:32.469Z,29.50
2022-08-24T11:23:04.986Z,29.60
2022-08-24T11:25:36.570Z,29.60
2022-08-24T11:28:09.120Z,29.60
2022-08-24T11:30:40.048Z,29.70
2022-08-24T11:33:32.392Z,29.80
2022-08-24T11:36:01.341Z,29.80
2022-08-24T11:38:31.817Z,29.90
2022-08-24T11:41:25.741Z,30.10
2022-08-24T11:43:58.164Z,30.20
2022-08-24T11:46:52.039Z,30.30
2022-08-24T11:49:31.021Z,30.30
2022-08-24T11:52:09.486Z,30.50
2022-08-24T11:54:37.133Z,30.60
2022-08-24T11:57:17.231Z,30.60
2022-08-24T11:59:49.481Z,30.60
2022-08-24T12:02:38.740Z,30.50
2022-08-24T12:05:05.605Z,30.60
2022-08-24T12:07:51.760Z,30.70
2022-08-24T12:10:56.169Z,30.80
2022-08-24T12:13:56.237Z,31.00
2022-08-24T12:17:04.559Z,31.10
2022-08-24T12:19:35.642Z,31.10
2022-08-24T12:22:07.361Z,31.10
2022-08-24T12:24:43.981Z,31.20
2022-08-24T12:27:23.499Z,31.20
2022-08-24T12:30:05.753Z,31.40
2022-08-24T12:32:42.168Z,31.40
2022-08-24T12:35:24.095Z,31.50
2022-08-24T12:37:57.974Z,31.60
2022-08-24T12:41:17.865Z,31.60
2022-08-24T12:43:58.700Z,31.80
2022-08-24T12:46:26.943Z,31.90
2022-08-24T12:49:07.508Z,32.10
2022-08-24T12:52:08.468Z,32.20
2022-08-24T12:54:55.488Z,32.30
2022-08-24T12:57:39.653Z,32.30
2022-08-24T13:00:20.072Z,32.30
2022-08-24T13:03:00.058Z,32.30
2022-08-24T13:05:46.504Z,32.50
2022-08-24T13:08:19.669Z,32.50
2022-08-24T13:10:53.988Z,32.70
2022-08-24T13:13:39.505Z,32.80
2022-08-24T13:16:08.369Z,32.80
2022-08-24T13:19:09.568Z,32.90
2022-08-24T13:21:46.941Z,33.00
2022-08-24T13:24:29.176Z,33.10
2022-08-24T13:26:56.699Z,33.10
2022-08-24T13:29:29.526Z,33.20
2022-08-24T13:32:00.210Z,33.20
2022-08-24T13:34:40.754Z,33.20
2022-08-24T13:37:28.196Z,33.20
2022-08-24T13:40:18.930Z,33.20
2022-08-24T13:43:17.996Z,33.00
2022-08-24T13:46:01.391Z,33.10
2022-08-24T13:48:53.340Z,33.10
2022-08-24T13:51:39.343Z,33.20
2022-08-24T13:54:31.968Z,33.20
2022-08-24T13:57:27.121Z,33.00
2022-08-24T14:00:12.665Z,32.90
2022-08-24T14:02:59.962Z,33.10
2022-08-24T14:05:43.360Z,33.00
2022-08-24T14:08:29.904Z,32.90
2022-08-24T14:11:07.191Z,33.10
2022-08-24T14:14:01.475Z,33.20
2022-08-24T14:17:19.623Z,33.40
2022-08-24T14:20:14.573Z,33.60
2022-08-24T14:23:00.923Z,33.80
2022-08-24T14:25:33.119Z,33.70
2022-08-24T14:27:59.766Z,33.80
2022-08-24T14:30:26.363Z,33.80
2022-08-24T14:32:58.691Z,33.80
2022-08-24T14:35:41.763Z,33.80
2022-08-24T14:38:22.211Z,33.80
2022-08-24T14:40:55.153Z,33.90
2022-08-24T14:43:30.623Z,33.90
2022-08-24T14:46:12.911Z,33.90
2022-08-24T14:48:52.979Z,34.00
2022-08-24T14:51:34.125Z,34.00
2022-08-24T14:54:15.592Z,34.20
2022-08-24T14:57:13.559Z,34.20
2022-08-24T15:00:04.392Z,34.30
2022-08-24T15:02:42.842Z,34.50
2022-08-24T15:05:25.263Z,34.60
2022-08-24T15:07:57.747Z,34.50
2022-08-24T15:10:29.000Z,34.40
2022-08-24T15:13:04.074Z,34.60
2022-08-24T15:15:54.677Z,34.80
2022-08-24T15:18:45.843Z,34.90
2022-08-24T15:21:45.049Z,35.00
2022-08-24T15:24:35.964Z,35.00
2022-08-24T15:27:33.062Z,34.70
2022-08-24T15:30:02.348Z,34.30
2022-08-24T15:32:54.194Z,34.40
2022-08-24T15:35:29.774Z,34.60
2022-08-24T15:37:57.981Z,34.70
2022-08-24T15:40:31.244Z,34.70
2022-08-24T15:43:04.403Z,34.80
2022-08-24T15:45:32.245Z,34.80
2022-08-24T15:48:01.315Z,34.80
2022-08-24T15:50:40.932Z,34.60
2022-08-24T15:53:27.897Z,34.80
2022-08-24T15:55:55.071Z,34.90
2022-08-24T15:58:38.496Z,35.20
2022-08-24T16:01:29.727Z,35.30
2022-08-24T16:04:02.047Z,35.30
2022-08-24T16:06:31.860Z,35.20
2022-08-24T16:09:22.940Z,35.30
2022-08-24T16:11:58.685Z,35.60
2022-08-24T16:14:30.705Z,35.60
2022-08-24T16:16:58.534Z,35.80
2022-08-24T16:19:27.120Z,35.80
2022-08-24T16:22:06.874Z,35.80
2022-08-24T16:24:36.560Z,35.80
2022-08-24T16:27:17.215Z,35.80
2022-08-24T16:29:53.508Z,35.90
2022-08-24T16:32:49.330Z,36.00
2022-08-24T16:35:21.675Z,36.00
2022-08-24T16:37:48.518Z,36.20
2022-08-24T16:40:15.411Z,36.30
2022-08-24T16:42:42.304Z,36.50
2022-08-24T16:45:11.113Z,36.50
2022-08-24T16:47:38.128Z,36.30
2022-08-24T16:50:05.967Z,36.40
2022-08-24T16:52:32.682Z,36.70
2022-08-24T16:55:01.320Z,36.50
2022-08-24T16:57:30.944Z,36.60
2022-08-24T16:59:57.679Z,36.60
2022-08-24T17:02:25.804Z,36.60
2022-08-24T17:04:54.413Z,36.70
2022-08-24T17:07:24.392Z,37.00
2022-08-24T17:09:51.441Z,36.90
2022-08-24T17:12:18.064Z,37.10
2022-08-24T17:14:44.935Z,37.10
2022-08-24T17:17:17.895Z,37.10
2022-08-24T17:19:50.893Z,37.20
2022-08-24T17:22:17.944Z,37.50
2022-08-24T17:24:45.317Z,37.60
2022-08-24T17:27:13.940Z,37.70
2022-08-24T17:29:43.254Z,37.70
2022-08-24T17:32:10.425Z,37.60
2022-08-24T17:34:37.232Z,37.50
2022-08-24T17:37:04.757Z,37.50
2022-08-24T17:39:31.476Z,37.40
2022-08-24T17:41:59.017Z,37.40
2022-08-24T17:44:29.928Z,37.40
2022-08-24T17:47:00.517Z,37.40
2022-08-24T17:49:27.926Z,37.50
2022-08-24T17:51:55.099Z,37.20
2022-08-24T17:54:22.415Z,36.60
2022-08-24T17:56:50.767Z,36.50
2022-08-24T17:59:25.664Z,36.20
2022-08-24T18:02:12.373Z,36.10
2022-08-24T18:04:39.760Z,36.10
2022-08-24T18:07:11.641Z,35.90
2022-08-24T18:09:45.943Z,35.00
2022-08-24T18:12:12.552Z,34.90
2022-08-24T18:14:39.296Z,34.50
2022-08-24T18:17:09.649Z,34.10
2022-08-24T18:19:36.849Z,33.80
2022-08-24T18:22:04.671Z,33.70
2022-08-24T18:24:32.425Z,33.20
2022-08-24T18:27:19.216Z,32.90
2022-08-24T18:29:46.853Z,32.80
2022-08-24T18:32:21.494Z,32.50
2022-08-24T18:34:48.810Z,32.00
2022-08-24T18:37:15.624Z,31.90
2022-08-24T18:39:42.247Z,31.80
2022-08-24T18:42:10.729Z,31.70
2022-08-24T18:44:40.278Z,31.70
2022-08-24T18:47:07.853Z,31.60
2022-08-24T18:49:35.525Z,31.50
2022-08-24T18:52:03.483Z,31.50
2022-08-24T18:54:36.633Z,31.20
2022-08-24T18:57:06.826Z,31.20
2022-08-24T18:59:35.340Z,31.20
2022-08-24T19:02:30.375Z,31.00
2022-08-24T19:05:01.331Z,30.90
2022-08-24T19:07:31.319Z,30.70
2022-08-24T19:09:58.864Z,30.60
2022-08-24T19:12:27.284Z,30.50
2022-08-24T19:14:56.773Z,30.50
2022-08-24T19:17:23.617Z,30.40
2022-08-24T19:19:50.233Z,30.20
2022-08-24T19:22:18.063Z,29.90
2022-08-24T19:24:45.884Z,30.00
2022-08-24T19:27:12.533Z,29.90
2022-08-24T19:29:55.269Z,30.10
2022-08-24T19:32:25.445Z,30.00
2022-08-24T19:34:53.364Z,29.80
2022-08-24T19:37:20.860Z,29.40
2022-08-24T19:39:47.950Z,29.20
2022-08-24T19:42:17.161Z,29.20
2022-08-24T19:45:02.340Z,29.40
2022-08-24T19:47:31.770Z,29.30
2022-08-24T19:49:58.648Z,29.10
2022-08-24T19:52:26.044Z,29.00
2022-08-24T19:54:53.143Z,28.80
2022-08-24T19:57:47.446Z,28.70
2022-08-24T20:00:17.252Z,28.60
2022-08-24T20:02:48.675Z,28.80
2022-08-24T20:05:17.519Z,28.50
2022-08-24T20:07:45.600Z,28.30
2022-08-24T20:10:13.499Z,28.20
2022-08-24T20:12:40.691Z,28.30
2022-08-24T20:15:08.099Z,28.20
2022-08-24T20:17:36.061Z,28.20
2022-08-24T20:20:07.131Z,28.00
2022-08-24T20:22:33.775Z,28.00
2022-08-24T20:25:00.386Z,27.80
2022-08-24T20:27:28.461Z,27.80
2022-08-24T20:29:55.808Z,27.90
2022-08-24T20:32:22.785Z,27.70
2022-08-24T20:34:49.965Z,27.60
2022-08-24T20:37:27.256Z,27.60
2022-08-24T20:39:55.388Z,27.60
2022-08-24T20:42:26.844Z,27.50
2022-08-24T20:44:54.954Z,27.50
2022-08-24T20:47:22.412Z,27.30
2022-08-24T20:49:49.524Z,27.20
2022-08-24T20:52:16.197Z,27.20
2022-08-24T20:54:42.927Z,27.30
2022-08-24T20:57:13.575Z,27.40
2022-08-24T20:59:40.359Z,27.30
2022-08-24T21:02:07.453Z,27.20
2022-08-24T21:04:34.292Z,27.10
2022-08-24T21:07:01.080Z,27.10
2022-08-24T21:09:27.766Z,27.10
2022-08-24T21:11:54.523Z,27.00
2022-08-24T21:14:21.147Z,27.10
2022-08-24T21:16:48.233Z,26.90
2022-08-24T21:19:17.483Z,26.80
2022-08-24T21:21:46.614Z,26.70
2022-08-24T21:24:13.267Z,26.60
2022-08-24T21:26:40.272Z,26.50
2022-08-24T21:29:08.858Z,26.40
2022-08-24T21:31:36.408Z,26.40
2022-08-24T21:34:22.040Z,26.40
2022-08-24T21:36:49.469Z,26.40
2022-08-24T21:39:19.360Z,26.40
2022-08-24T21:41:46.347Z,26.40
2022-08-24T21:44:12.956Z,26.40
2022-08-24T21:46:40.255Z,26.30
2022-08-24T21:49:07.390Z,26.30
2022-08-24T21:51:39.151Z,26.30
2022-08-24T21:54:05.751Z,26.10
2022-08-24T21:56:33.060Z,26.10
2022-08-24T21:58:59.732Z,26.10
2022-08-24T22:01:26.699Z,26.10
2022-08-24T22:03:53.422Z,26.00
2022-08-24T22:06:20.168Z,26.10
2022-08-24T22:08:46.915Z,26.20
2022-08-24T22:11:15.696Z,26.10
2022-08-24T22:13:42.774Z,26.10
2022-08-24T22:16:11.110Z,26.00
2022-08-24T22:18:37.845Z,25.90
2022-08-24T22:21:09.707Z,25.80
2022-08-24T22:23:36.801Z,25.80
2022-08-24T22:26:03.583Z,25.70
2022-08-24T22:28:30.205Z,25.60
2022-08-24T22:30:56.920Z,25.50
2022-08-24T22:33:24.584Z,25.40
2022-08-24T22:35:51.755Z,25.50
2022-08-24T22:38:20.033Z,25.50
2022-08-24T22:40:52.504Z,25.40
2022-08-24T22:43:22.128Z,25.30
2022-08-24T22:45:51.549Z,25.30
2022-08-24T22:48:18.137Z,25.30
2022-08-24T22:50:46.225Z,25.10
2022-08-24T22:53:13.523Z,25.10
2022-08-24T22:55:40.121Z,25.10
2022-08-24T22:58:06.747Z,25.00
2022-08-24T23:00:33.354Z,25.00
2022-08-24T23:02:59.935Z,24.90
2022-08-24T23:05:26.682Z,24.90
2022-08-24T23:07:53.269Z,24.90
2022-08-24T23:10:20.065Z,25.00
2022-08-24T23:12:46.977Z,24.90
2022-08-24T23:15:13.562Z,24.90
2022-08-24T23:17:41.655Z,24.90
2022-08-24T23:20:09.585Z,24.90
2022-08-24T23:22:40.212Z,24.80
2022-08-24T23:25:09.508Z,24.90
2022-08-24T23:27:38.545Z,24.80
2022-08-24T23:30:11.278Z,24.80
2022-08-24T23:32:38.508Z,24.80
2022-08-24T23:35:05.695Z,24.90
2022-08-24T23:37:32.389Z,24.80
2022-08-24T23:39:59.109Z,24.80
2022-08-24T23:42:25.804Z,24.80
2022-08-24T23:44:52.684Z,24.70
2022-08-24T23:47:20.928Z,24.70
2022-08-24T23:49:47.903Z,24.70
2022-08-24T23:52:28.299Z,24.70
2022-08-24T23:55:09.865Z,24.70
2022-08-24T23:57:44.701Z,24.60
